createdAt,value
2018-03-23T00:01:49.982Z,13.43
2018-03-23T00:05:13.258Z,14.80
2018-03-23T00:08:36.631Z,14.63
2018-03-23T00:11:59.917Z,13.73
2018-03-23T00:15:23.182Z,13.90
2018-03-23T00:18:46.520Z,14.10
2018-03-23T00:22:09.835Z,13.33
2018-03-23T00:25:33.123Z,11.77
2018-03-23T00:28:56.396Z,13.30
2018-03-23T00:32:19.664Z,12.07
2018-03-23T00:35:43.694Z,12.77
2018-03-23T00:39:06.974Z,12.97
2018-03-23T00:42:30.260Z,12.00
2018-03-23T00:45:53.539Z,14.33
2018-03-23T00:49:16.850Z,14.03
2018-03-23T00:52:40.129Z,14.30
2018-03-23T00:56:03.398Z,12.20
2018-03-23T00:59:26.689Z,15.23
2018-03-23T01:02:49.970Z,13.57
2018-03-23T01:06:13.243Z,15.57
2018-03-23T01:09:36.530Z,14.87
2018-03-23T01:12:59.834Z,14.23
2018-03-23T01:16:23.137Z,13.63
2018-03-23T01:19:46.470Z,14.77
2018-03-23T01:23:09.744Z,15.20
2018-03-23T01:26:33.016Z,13.37
2018-03-23T01:29:57.118Z,13.33
2018-03-23T01:33:21.208Z,14.37
2018-03-23T01:36:44.474Z,13.23
2018-03-23T01:40:07.774Z,14.13
2018-03-23T01:43:31.067Z,12.50
2018-03-23T01:46:54.386Z,13.10
2018-03-23T01:50:18.431Z,12.77
2018-03-23T01:53:45.596Z,11.77
2018-03-23T01:57:08.919Z,13.47
2018-03-23T02:00:32.199Z,14.27
2018-03-23T02:03:55.530Z,13.53
2018-03-23T02:07:18.853Z,13.63
2018-03-23T02:10:42.193Z,13.17
2018-03-23T02:14:06.289Z,11.87
2018-03-23T02:17:29.562Z,14.00
2018-03-23T02:20:52.854Z,15.13
2018-03-23T02:24:16.125Z,13.50
2018-03-23T02:27:39.398Z,15.87
2018-03-23T02:31:03.505Z,13.77
2018-03-23T02:34:26.789Z,13.27
2018-03-23T02:37:50.087Z,14.50
2018-03-23T02:41:13.351Z,13.43
2018-03-23T02:44:36.646Z,14.20
2018-03-23T02:47:59.931Z,14.93
2018-03-23T02:51:23.213Z,14.00
2018-03-23T02:54:46.511Z,17.33
2018-03-23T02:58:09.768Z,18.53
2018-03-23T03:01:33.958Z,16.87
2018-03-23T03:04:57.298Z,16.23
2018-03-23T03:08:20.575Z,15.23
2018-03-23T03:11:43.864Z,15.63
2018-03-23T03:15:07.145Z,14.83
2018-03-23T03:18:30.430Z,16.40
2018-03-23T03:21:53.722Z,14.00
2018-03-23T03:25:17.026Z,16.07
2018-03-23T03:28:40.348Z,15.87
2018-03-23T03:32:03.703Z,16.37
2018-03-23T03:35:27.003Z,15.67
2018-03-23T03:38:50.286Z,14.80
2018-03-23T03:42:13.568Z,13.93
2018-03-23T03:45:36.834Z,15.00
2018-03-23T03:49:00.141Z,15.63
2018-03-23T03:52:23.420Z,16.20
2018-03-23T03:55:46.689Z,17.50
2018-03-23T03:59:10.001Z,16.37
2018-03-23T04:02:33.258Z,14.10
2018-03-23T04:05:56.561Z,15.60
2018-03-23T04:09:19.843Z,16.47
2018-03-23T04:12:43.129Z,13.70
2018-03-23T04:16:06.416Z,16.07
2018-03-23T04:19:29.719Z,15.10
2018-03-23T04:22:52.986Z,14.77
2018-03-23T04:26:16.252Z,14.23
2018-03-23T04:29:39.540Z,13.60
2018-03-23T04:33:02.829Z,15.63
2018-03-23T04:36:26.109Z,15.60
2018-03-23T04:39:49.412Z,17.90
2018-03-23T04:43:12.674Z,13.90
2018-03-23T04:46:35.953Z,14.67
2018-03-23T04:50:00.045Z,14.00
2018-03-23T04:53:23.326Z,18.83
2018-03-23T04:56:46.616Z,15.57
2018-03-23T05:00:09.900Z,15.63
2018-03-23T05:03:33.181Z,15.00
2018-03-23T05:06:56.477Z,16.20
2018-03-23T05:10:19.751Z,14.63
2018-03-23T05:13:43.027Z,16.77
2018-03-23T05:17:07.332Z,14.73
2018-03-23T05:20:30.651Z,14.63
2018-03-23T05:23:53.983Z,14.33
2018-03-23T05:27:18.138Z,12.43
2018-03-23T05:30:42.224Z,15.53
2018-03-23T05:34:05.496Z,15.77
2018-03-23T05:37:28.797Z,13.63
2018-03-23T05:40:52.882Z,13.17
2018-03-23T05:44:16.176Z,13.37
2018-03-23T05:47:39.554Z,13.33
2018-03-23T05:51:03.604Z,14.40
2018-03-23T05:54:26.900Z,12.27
2018-03-23T05:57:50.538Z,12.53
2018-03-23T06:01:13.840Z,14.57
2018-03-23T06:04:37.192Z,15.03
2018-03-23T06:08:00.496Z,16.47
2018-03-23T06:11:23.843Z,12.30
2018-03-23T06:14:47.186Z,13.77
2018-03-23T06:18:10.460Z,17.70
2018-03-23T06:21:33.744Z,17.57
2018-03-23T06:24:57.032Z,17.20
2018-03-23T06:28:20.304Z,18.63
2018-03-23T06:31:43.793Z,18.97
2018-03-23T06:35:07.922Z,19.17
2018-03-23T06:38:31.272Z,18.60
2018-03-23T06:41:54.543Z,20.37
2018-03-23T06:45:17.828Z,16.97
2018-03-23T06:48:41.095Z,18.03
2018-03-23T06:52:04.385Z,18.30
2018-03-23T06:55:27.694Z,21.13
2018-03-23T06:58:50.962Z,17.13
2018-03-23T07:02:14.243Z,18.60
2018-03-23T07:05:37.504Z,16.73
2018-03-23T07:09:01.528Z,17.10
2018-03-23T07:12:24.830Z,17.17
2018-03-23T07:15:48.105Z,15.30
2018-03-23T07:19:11.382Z,15.23
2018-03-23T07:22:34.691Z,16.13
2018-03-23T07:25:57.974Z,18.77
2018-03-23T07:29:21.234Z,17.57
2018-03-23T07:32:44.500Z,16.77
2018-03-23T07:36:08.560Z,14.13
2018-03-23T07:39:31.856Z,16.13
2018-03-23T07:42:55.137Z,14.93
2018-03-23T07:46:18.439Z,16.73
2018-03-23T07:49:42.499Z,19.07
2018-03-23T07:53:05.770Z,19.03
2018-03-23T07:56:29.044Z,16.13
2018-03-23T07:59:52.311Z,17.80
2018-03-23T08:03:16.333Z,14.77
2018-03-23T08:06:39.654Z,14.10
2018-03-23T08:10:02.923Z,12.03
2018-03-23T08:13:26.339Z,12.97
2018-03-23T08:16:49.632Z,11.20
2018-03-23T08:20:12.892Z,13.50
2018-03-23T08:23:36.915Z,14.60
2018-03-23T08:27:00.183Z,13.10
2018-03-23T08:30:24.203Z,12.00
2018-03-23T08:33:47.489Z,11.40
2018-03-23T08:37:10.770Z,14.73
2018-03-23T08:40:34.905Z,15.27
2018-03-23T08:43:58.920Z,12.33
2018-03-23T08:47:22.971Z,11.80
2018-03-23T08:50:46.330Z,14.30
2018-03-23T08:54:09.612Z,14.27
2018-03-23T08:57:32.880Z,13.30
2018-03-23T09:00:56.154Z,13.77
2018-03-23T09:04:19.426Z,13.80
2018-03-23T09:07:43.474Z,18.57
2018-03-23T09:11:06.738Z,13.53
2018-03-23T09:14:30.741Z,16.60
2018-03-23T09:17:54.862Z,14.17
2018-03-23T09:21:18.246Z,13.03
2018-03-23T09:24:41.603Z,14.07
2018-03-23T09:28:05.024Z,13.13
2018-03-23T09:31:28.396Z,14.87
2018-03-23T09:34:52.445Z,13.47
2018-03-23T09:38:15.723Z,15.23
2018-03-23T09:41:38.997Z,14.40
2018-03-23T09:45:02.273Z,14.13
2018-03-23T09:48:25.553Z,13.40
2018-03-23T09:51:49.819Z,13.13
2018-03-23T09:55:13.116Z,13.87
2018-03-23T09:58:36.407Z,13.03
2018-03-23T10:02:00.439Z,15.70
2018-03-23T10:05:23.754Z,13.13
2018-03-23T10:08:47.220Z,13.53
2018-03-23T10:12:11.402Z,13.83
2018-03-23T10:15:35.377Z,14.20
2018-03-23T10:18:59.547Z,14.77
2018-03-23T10:22:25.039Z,15.87
2018-03-23T10:25:49.671Z,15.37
2018-03-23T10:29:16.061Z,14.13
2018-03-23T10:32:40.039Z,13.07
2018-03-23T10:36:04.034Z,14.57
2018-03-23T10:39:28.090Z,13.07
2018-03-23T10:42:51.372Z,17.80
2018-03-23T10:46:14.639Z,11.23
2018-03-23T10:49:37.912Z,13.63
2018-03-23T10:53:01.236Z,14.80
2018-03-23T10:56:26.118Z,14.33
2018-03-23T10:59:49.850Z,13.53
2018-03-23T11:03:13.939Z,8.40
2018-03-23T11:06:38.770Z,10.03
2018-03-23T11:10:02.422Z,10.30
2018-03-23T11:13:25.979Z,8.57
2018-03-23T11:16:50.030Z,9.90
2018-03-23T11:20:13.440Z,9.03
2018-03-23T11:23:39.816Z,8.53
2018-03-23T11:27:03.960Z,8.83
2018-03-23T11:30:27.256Z,9.30
2018-03-23T11:33:52.579Z,9.80
2018-03-23T11:37:17.595Z,10.10
2018-03-23T11:40:40.983Z,11.20
2018-03-23T11:44:04.422Z,8.63
2018-03-23T11:51:06.701Z,9.73
2018-03-23T11:54:30.065Z,8.00
2018-03-23T11:57:53.573Z,9.03
2018-03-23T12:01:16.875Z,9.57
2018-03-23T12:04:40.190Z,11.40
2018-03-23T12:08:03.524Z,10.77
2018-03-23T12:11:27.808Z,10.90
2018-03-23T12:14:51.138Z,9.70
2018-03-23T12:18:14.436Z,9.97
2018-03-23T12:21:37.747Z,10.63
2018-03-23T12:25:01.860Z,10.47
2018-03-23T12:28:25.256Z,9.87
2018-03-23T12:31:48.577Z,8.93
2018-03-23T12:35:11.873Z,10.03
2018-03-23T12:38:35.198Z,9.43
2018-03-23T12:41:59.266Z,11.50
2018-03-23T12:45:23.348Z,8.20
2018-03-23T12:48:46.763Z,10.47
2018-03-23T12:52:10.101Z,9.87
2018-03-23T12:55:33.414Z,8.13
2018-03-23T12:58:56.738Z,8.70
2018-03-23T13:02:20.068Z,9.27
2018-03-23T13:05:43.423Z,7.40
2018-03-23T13:09:06.722Z,6.73
2018-03-23T13:12:30.059Z,7.13
2018-03-23T13:15:53.395Z,8.07
2018-03-23T13:19:16.757Z,8.67
2018-03-23T13:22:40.111Z,8.40
2018-03-23T13:26:03.370Z,6.87
2018-03-23T13:29:26.647Z,7.67
2018-03-23T13:32:50.696Z,6.83
2018-03-23T13:36:13.981Z,7.70
2018-03-23T13:39:37.323Z,6.73
2018-03-23T13:43:00.620Z,7.17
2018-03-23T13:46:23.946Z,9.23
2018-03-23T13:49:47.395Z,8.30
2018-03-23T13:53:10.717Z,7.17
2018-03-23T13:56:34.772Z,7.70
2018-03-23T13:59:58.924Z,5.87
2018-03-23T14:03:22.279Z,5.50
2018-03-23T14:06:45.556Z,5.17
2018-03-23T14:10:08.863Z,5.93
2018-03-23T14:13:32.136Z,6.10
2018-03-23T14:16:55.511Z,6.17
2018-03-23T14:20:18.871Z,5.43
2018-03-23T14:23:42.911Z,7.67
2018-03-23T14:27:06.192Z,7.23
2018-03-23T14:30:29.497Z,7.40
2018-03-23T14:33:52.789Z,8.20
2018-03-23T14:37:16.076Z,7.63
2018-03-23T14:40:39.350Z,8.40
2018-03-23T14:44:02.621Z,6.40
2018-03-23T14:47:26.854Z,10.03
2018-03-23T14:50:50.177Z,8.23
2018-03-23T14:54:13.458Z,7.37
2018-03-23T14:57:36.734Z,6.50
2018-03-23T15:01:00.020Z,7.73
2018-03-23T15:04:23.319Z,6.87
2018-03-23T15:07:47.350Z,6.97
2018-03-23T15:11:10.634Z,10.50
2018-03-23T15:14:33.931Z,6.40
2018-03-23T15:17:57.203Z,6.00
2018-03-23T15:21:20.476Z,7.17
2018-03-23T15:24:44.523Z,8.17
2018-03-23T15:28:07.786Z,7.40
2018-03-23T15:31:31.073Z,6.97
2018-03-23T15:34:54.416Z,6.67
2018-03-23T15:38:18.449Z,6.77
2018-03-23T15:41:41.843Z,6.77
2018-03-23T15:45:05.127Z,7.80
2018-03-23T15:48:29.256Z,7.43
2018-03-23T15:51:52.619Z,6.30
2018-03-23T15:55:15.921Z,7.60
2018-03-23T15:58:39.187Z,6.67
2018-03-23T16:02:02.484Z,7.57
2018-03-23T16:05:25.893Z,7.27
2018-03-23T16:08:49.183Z,6.30
2018-03-23T16:12:12.519Z,6.17
2018-03-23T16:15:35.899Z,5.67
2018-03-23T16:18:59.192Z,8.47
2018-03-23T16:22:22.451Z,7.87
2018-03-23T16:25:45.748Z,8.00
2018-03-23T16:29:09.005Z,6.30
2018-03-23T16:32:32.311Z,5.87
2018-03-23T16:35:55.705Z,7.60
2018-03-23T16:39:20.006Z,8.00
2018-03-23T16:42:45.278Z,5.60
2018-03-23T16:46:08.712Z,6.17
2018-03-23T16:49:32.276Z,7.93
2018-03-23T16:52:55.818Z,7.63
2018-03-23T16:56:19.330Z,7.77
2018-03-23T16:59:43.457Z,8.10
2018-03-23T17:03:07.156Z,8.50
2018-03-23T17:06:30.630Z,9.03
2018-03-23T17:09:54.861Z,8.50
2018-03-23T17:13:19.556Z,10.10
2018-03-23T17:16:43.338Z,10.03
2018-03-23T17:20:08.154Z,10.30
2018-03-23T17:23:32.097Z,10.20
2018-03-23T17:26:55.681Z,11.33
2018-03-23T17:30:19.177Z,8.77
2018-03-23T17:33:42.598Z,7.57
2018-03-23T17:37:08.949Z,6.77
2018-03-23T17:40:33.233Z,7.50
2018-03-23T17:43:58.784Z,8.23
2018-03-23T17:47:22.438Z,7.57
2018-03-23T17:50:45.930Z,8.33
2018-03-23T17:54:09.472Z,8.63
2018-03-23T17:57:33.110Z,8.00
2018-03-23T18:00:56.533Z,7.20
2018-03-23T18:04:19.984Z,9.97
2018-03-23T18:07:43.306Z,7.70
2018-03-23T18:11:06.639Z,8.70
2018-03-23T18:14:30.708Z,8.23
2018-03-23T18:17:54.015Z,8.77
2018-03-23T18:21:18.095Z,8.33
2018-03-23T18:24:43.238Z,6.97
2018-03-23T18:28:06.871Z,6.57
2018-03-23T18:31:31.003Z,7.97
2018-03-23T18:34:55.157Z,8.40
2018-03-23T18:38:18.608Z,7.50
2018-03-23T18:41:41.929Z,8.43
2018-03-23T18:45:05.283Z,7.53
2018-03-23T18:48:28.651Z,7.00
2018-03-23T18:51:52.035Z,7.27
2018-03-23T18:55:15.460Z,8.33
2018-03-23T18:58:39.548Z,8.03
2018-03-23T19:02:02.866Z,7.07
2018-03-23T19:05:26.300Z,7.33
2018-03-23T19:08:49.803Z,7.53
2018-03-23T19:12:15.105Z,8.27
2018-03-23T19:15:38.466Z,8.50
2018-03-23T19:19:01.772Z,9.33
2018-03-23T19:22:26.367Z,8.97
2018-03-23T19:25:49.685Z,8.93
2018-03-23T19:29:13.803Z,8.33
2018-03-23T19:32:37.391Z,8.33
2018-03-23T19:36:01.507Z,8.33
2018-03-23T19:39:24.991Z,8.23
2018-03-23T19:42:48.301Z,8.93
2018-03-23T19:46:11.616Z,7.60
2018-03-23T19:49:35.803Z,8.60
2018-03-23T19:52:59.235Z,8.70
2018-03-23T19:56:22.607Z,7.50
2018-03-23T19:59:45.953Z,6.67
2018-03-23T20:03:09.544Z,8.67
2018-03-23T20:06:33.945Z,6.93
2018-03-23T20:09:58.608Z,8.67
2018-03-23T20:13:22.827Z,9.37
2018-03-23T20:16:46.376Z,10.63
2018-03-23T20:20:15.159Z,11.37
2018-03-23T20:23:38.461Z,8.93
2018-03-23T20:30:59.639Z,8.93
2018-03-23T20:34:24.136Z,9.83
2018-03-23T20:37:48.285Z,10.17
2018-03-23T20:41:12.645Z,8.97
2018-03-23T20:44:39.506Z,8.60
2018-03-23T20:48:03.655Z,11.23
2018-03-23T20:51:31.336Z,8.30
2018-03-23T20:54:54.634Z,9.47
2018-03-23T20:58:17.916Z,13.43
2018-03-23T21:01:41.383Z,12.20
2018-03-23T21:05:05.524Z,13.57
2018-03-23T21:08:29.593Z,12.27
2018-03-23T21:11:53.244Z,12.03
2018-03-23T21:15:16.771Z,10.60
2018-03-23T21:18:40.313Z,12.20
2018-03-23T21:22:03.595Z,13.73
2018-03-23T21:25:26.934Z,11.93
2018-03-23T21:28:50.375Z,14.00
2018-03-23T21:32:13.731Z,11.47
2018-03-23T21:35:37.231Z,13.97
2018-03-23T21:39:00.575Z,12.13
2018-03-23T21:42:23.887Z,13.63
2018-03-23T21:45:47.147Z,11.13
2018-03-23T21:49:10.447Z,14.07
2018-03-23T21:52:33.808Z,15.30
2018-03-23T21:55:57.157Z,13.80
2018-03-23T21:59:20.539Z,11.70
2018-03-23T22:02:44.669Z,10.67
2018-03-23T22:06:08.029Z,14.03
2018-03-23T22:09:31.481Z,10.47
2018-03-23T22:12:55.607Z,9.30
2018-03-23T22:16:18.946Z,10.10
2018-03-23T22:19:42.219Z,11.60
2018-03-23T22:23:06.312Z,14.27
2018-03-23T22:26:30.358Z,11.40
2018-03-23T22:29:53.625Z,10.30
2018-03-23T22:33:17.524Z,11.37
2018-03-23T22:36:41.859Z,11.90
2018-03-23T22:40:06.485Z,9.83
2018-03-23T22:43:29.930Z,10.03
2018-03-23T22:46:53.321Z,10.83
2018-03-23T22:50:16.727Z,11.53
2018-03-23T22:53:40.991Z,9.97
2018-03-23T22:57:05.069Z,10.43
2018-03-23T23:00:28.552Z,10.43
2018-03-23T23:03:52.649Z,11.13
2018-03-23T23:07:16.237Z,10.33
2018-03-23T23:10:39.492Z,11.87
2018-03-23T23:14:03.601Z,13.57
2018-03-23T23:17:26.886Z,13.33
2018-03-23T23:20:50.152Z,10.63
2018-03-23T23:24:13.644Z,10.93
2018-03-23T23:27:37.775Z,10.43
2018-03-23T23:31:01.082Z,9.23
2018-03-23T23:34:25.334Z,9.63
2018-03-23T23:37:48.687Z,10.47
2018-03-23T23:41:11.998Z,10.23
2018-03-23T23:44:35.319Z,12.27
2018-03-23T23:47:58.626Z,10.70
2018-03-23T23:51:21.879Z,10.97
2018-03-23T23:54:45.939Z,12.27
2018-03-23T23:58:09.270Z,11.97
